Time;durP1;ratioP1;P1;durP2;ratioP2;P2;SDS_P1;SDS_P2;PMS_P1;PMS_P2;Temp;Humidity;BMP_temperature;BMP_pressure;BME280_temperature;BME280_humidity;BME280_pressure;Samples;Min_cycle;Max_cycle;Signal;HPM_P1;HPM_P2
2022/04/29 00:02:45;;;;;;;7.43;3.73;;;;;;;14.53;41.39;101365.06;5366513;32;35152;-74
2022/04/29 00:05:48;;;;;;;7.10;4.47;;;;;;;15.06;40.55;101367.28;5370826;32;35527;-74
2022/04/29 00:08:51;;;;;;;8.85;3.90;;;;;;;15.06;40.45;101354.06;5362805;32;34661;-76
2022/04/29 00:11:54;;;;;;;9.90;4.90;;;;;;;14.78;41.48;101358.78;5362607;32;34079;-75
2022/04/29 00:14:56;;;;;;;;;;;;;;;14.51;42.32;101351.06;5365006;32;34909;-76
2022/04/29 00:17:58;;;;;;;7.30;3.90;;;;;;;15.21;41.03;101349.91;5358154;32;35359;-75
2022/04/29 00:21:00;;;;;;;10.63;3.93;;;;;;;15.04;41.20;101339.19;5372931;32;35170;-75
2022/04/29 00:24:03;;;;;;;8.73;4.03;;;;;;;15.31;40.80;101347.72;5359436;32;34286;-75
2022/04/29 00:27:05;;;;;;;7.57;3.90;;;;;;;14.51;42.79;101355.50;5382001;32;42414;-75
2022/04/29 00:30:09;;;;;;;8.27;4.03;;;;;;;14.96;41.92;101351.87;5355529;32;35332;-74
2022/04/29 00:33:11;;;;;;;7.40;3.70;;;;;;;15.19;41.72;101349.09;5362574;32;34841;-74
2022/04/29 00:36:14;;;;;;;7.63;3.80;;;;;;;15.81;40.50;101355.25;5373173;32;34532;-75
2022/04/29 00:39:16;;;;;;;9.32;3.92;;;;;;;14.69;42.77;101353.88;5351898;32;33579;-73
2022/04/29 00:42:23;;;;;;;9.93;4.03;;;;;;;14.08;44.44;101357.97;5372795;32;33007;-74
2022/04/29 00:45:25;;;;;;;7.80;3.83;;;;;;;14.90;42.67;101359.16;5360000;32;37064;-72
2022/04/29 00:48:28;;;;;;;7.50;3.50;;;;;;;15.01;42.12;101353.41;5355448;32;34288;-75
2022/04/29 00:51:32;;;;;;;8.02;3.70;;;;;;;15.06;42.27;101358.50;5350368;32;34870;-76
2022/04/29 00:54:35;;;;;;;11.27;4.03;;;;;;;15.33;41.67;101352.03;5362604;32;34146;-73
2022/04/29 00:57:43;;;;;;;7.40;3.90;;;;;;;14.67;43.32;101355.72;5359221;32;45331;-76
2022/04/29 01:00:46;;;;;;;8.20;3.60;;;;;;;14.76;43.27;101358.00;5361424;32;35447;-75
2022/04/29 01:03:49;;;;;;;7.40;3.90;;;;;;;15.16;42.61;101357.19;5374447;32;34723;-74
2022/04/29 01:06:51;;;;;;;7.07;3.70;;;;;;;14.42;43.67;101351.38;5357776;32;35072;-73
2022/04/29 01:09:53;;;;;;;7.90;4.00;;;;;;;15.02;42.43;101355.13;5372316;32;34498;-74
2022/04/29 01:12:57;;;;;;;8.77;3.80;;;;;;;14.35;43.80;101357.81;5370819;32;35495;-75
2022/04/29 01:15:59;;;;;;;8.23;3.80;;;;;;;14.67;42.51;101350.44;5360072;32;36751;-75
2022/04/29 01:19:01;;;;;;;11.87;4.50;;;;;;;14.40;44.32;101355.87;5375714;32;35307;-72
2022/04/29 01:22:04;;;;;;;7.50;3.72;;;;;;;14.82;42.54;101357.75;5360700;32;34473;-75
2022/04/29 01:25:07;;;;;;;8.30;3.78;;;;;;;14.86;42.49;101354.91;5374817;32;46164;-74
2022/04/29 01:28:09;;;;;;;8.77;3.92;;;;;;;15.27;41.45;101354.09;5357801;32;34961;-74
2022/04/29 01:31:15;;;;;;;10.47;4.17;;;;;;;14.39;43.61;101346.22;5367297;32;34842;-74
2022/04/29 01:34:17;;;;;;;8.47;3.90;;;;;;;14.42;43.61;101338.16;5370217;32;34867;-73
2022/04/29 01:37:19;;;;;;;6.53;3.57;;;;;;;14.90;42.43;101342.41;5361192;32;35250;-74
2022/04/29 01:40:21;;;;;;;7.87;3.97;;;;;;;15.00;42.17;101343.72;5375837;32;34541;-75
2022/04/29 01:43:23;;;;;;;8.27;4.27;;;;;;;14.25;44.45;101343.25;5361193;32;35058;-74
2022/04/29 01:46:26;;;;;;;9.33;4.40;;;;;;;14.08;44.91;101342.13;5376886;32;34605;-73
2022/04/29 01:49:28;;;;;;;10.53;3.83;;;;;;;13.54;46.28;101345.06;5338959;32;35080;-73
2022/04/29 01:52:30;;;;;;;7.20;4.00;;;;;;;14.44;44.33;101332.81;5367470;32;34741;-75
2022/04/29 01:55:32;;;;;;;9.30;4.27;;;;;;;14.14;44.84;101337.53;5365880;32;34725;-74
2022/04/29 01:58:34;;;;;;;10.37;4.53;;;;;;;14.47;44.08;101330.06;5361290;32;35026;-73
2022/04/29 02:01:37;;;;;;;9.27;3.70;;;;;;;14.97;42.16;101333.28;5376404;32;44351;-74
2022/04/29 02:04:39;;;;;;;7.65;3.55;;;;;;;15.22;40.70;101329.59;5360960;32;34418;-74
2022/04/29 02:07:43;;;;;;;7.90;3.90;;;;;;;15.09;40.84;101334.56;5376951;32;33883;-74
2022/04/29 02:10:46;;;;;;;10.50;4.17;;;;;;;14.82;41.53;101337.44;5364687;32;34634;-75
2022/04/29 02:13:48;;;;;;;5.83;3.23;;;;;;;14.01;42.81;101342.41;5366120;32;34740;-75
2022/04/29 02:16:50;;;;;;;11.83;3.90;;;;;;;14.02;42.77;101337.06;5372825;32;36728;-76
2022/04/29 02:19:52;;;;;;;15.20;4.40;;;;;;;14.90;40.57;101339.75;5363164;32;35228;-75
2022/04/29 02:22:54;;;;;;;9.57;4.03;;;;;;;14.48;41.42;101335.28;5375327;32;34961;-74
2022/04/29 02:25:57;;;;;;;8.93;3.73;;;;;;;14.74;41.50;101330.72;5358494;32;35617;-75
2022/04/29 02:28:59;;;;;;;8.45;3.62;;;;;;;15.01;40.57;101323.44;5355180;32;34933;-73
2022/04/29 02:32:02;;;;;;;7.17;3.43;;;;;;;14.34;42.54;101322.59;5361665;32;34865;-74
2022/04/29 02:35:05;;;;;;;6.17;3.30;;;;;;;14.63;41.87;101339.13;5363696;32;34132;-73
2022/04/29 02:38:07;;;;;;;6.35;3.40;;;;;;;15.17;40.67;101328.00;5375938;32;44973;-74
2022/04/29 02:41:09;;;;;;;8.20;3.87;;;;;;;15.06;40.45;101335.53;5363854;32;34388;-73
2022/04/29 02:44:12;;;;;;;13.77;4.30;;;;;;;14.54;42.15;101335.03;5372562;32;35475;-74
2022/04/29 02:47:14;;;;;;;13.10;4.28;;;;;;;14.48;42.56;101332.66;5348930;32;35024;-74
2022/04/29 02:50:16;;;;;;;13.40;4.13;;;;;;;14.28;43.38;101332.56;5359979;32;35427;-74
2022/04/29 02:53:18;;;;;;;11.03;5.00;;;;;;;14.54;42.84;101332.41;5360451;32;34390;-73
2022/04/29 02:56:20;;;;;;;9.47;4.03;;;;;;;14.19;44.02;101333.78;5369840;32;34791;-75
2022/04/29 02:59:22;;;;;;;7.47;4.13;;;;;;;14.52;43.23;101328.97;5373547;32;35905;-74
2022/04/29 03:02:24;;;;;;;8.47;4.07;;;;;;;14.10;44.28;101328.84;5360530;32;34270;-73
2022/04/29 03:05:27;;;;;;;8.50;4.12;;;;;;;15.04;41.62;101329.44;5375663;32;34857;-74
2022/04/29 03:08:29;;;;;;;7.60;3.80;;;;;;;15.27;41.29;101328.47;5359761;32;34878;-74
2022/04/29 03:11:31;;;;;;;9.53;3.83;;;;;;;15.43;40.68;101323.34;5384054;32;34736;-73
2022/04/29 03:14:33;;;;;;;11.13;3.77;;;;;;;14.05;43.72;101333.47;5362262;32;35369;-74
2022/04/29 03:20:56;;;;;;;10.37;3.63;;;;;;;14.89;42.35;101335.41;5374771;32;34143;-73
2022/04/29 03:24:00;;;;;;;7.10;3.47;;;;;;;14.53;43.45;101338.63;5359177;32;34386;-74
2022/04/29 03:27:02;;;;;;;7.17;3.60;;;;;;;14.65;43.66;101336.41;5373383;32;34889;-74
2022/04/29 03:30:05;;;;;;;10.17;3.40;;;;;;;15.23;42.03;101333.94;5342678;32;36049;-75
2022/04/29 03:33:08;;;;;;;7.28;3.90;;;;;;;15.08;41.77;101338.13;5367503;32;45158;-73
2022/04/29 03:36:10;;;;;;;10.73;3.85;;;;;;;14.74;42.90;101344.81;5355328;32;33307;-73
2022/04/29 03:39:12;;;;;;;11.23;4.70;;;;;;;14.41;43.98;101338.22;5358856;32;34638;-74
2022/04/29 03:42:14;;;;;;;11.73;5.00;;;;;;;13.60;46.61;101341.34;5376222;32;35656;-75
2022/04/29 03:45:17;;;;;;;17.77;4.87;;;;;;;13.36;46.71;101343.94;5359703;32;35958;-75
2022/04/29 03:48:20;;;;;;;15.05;4.57;;;;;;;13.41;47.09;101342.00;5348523;32;34300;-73
2022/04/29 03:51:22;;;;;;;13.03;4.90;;;;;;;13.27;47.91;101346.91;5351994;32;34640;-75
2022/04/29 03:54:24;;;;;;;53.57;9.17;;;;;;;13.44;46.55;101352.44;5369363;32;35226;-74
2022/04/29 03:57:26;;;;;;;25.93;4.70;;;;;;;13.43;46.79;101340.16;5370789;32;34318;-72
2022/04/29 04:00:31;;;;;;;13.20;4.20;;;;;;;14.01;45.36;101342.41;5364232;32;35204;-75
2022/04/29 04:03:33;;;;;;;12.20;4.60;;;;;;;13.77;46.50;101355.63;5374524;32;34306;-74
2022/04/29 04:06:50;;;;;;;11.07;4.60;;;;;;;13.80;46.53;101362.59;5345792;32;43429;-73
2022/04/29 04:09:52;;;;;;;15.23;4.20;;;;;;;14.35;45.46;101358.69;5373326;32;34628;-75
2022/04/29 04:12:54;;;;;;;6.57;3.60;;;;;;;14.45;45.23;101359.19;5347826;32;35073;-72
2022/04/29 04:15:56;;;;;;;9.13;4.33;;;;;;;15.09;43.87;101361.03;5330671;32;35359;-76
2022/04/29 04:18:58;;;;;;;12.00;4.20;;;;;;;14.57;44.14;101352.59;5377374;32;34610;-72
2022/04/29 04:22:02;;;;;;;10.83;4.50;;;;;;;14.24;45.12;101363.56;5359908;32;36665;-73
2022/04/29 04:25:10;;;;;;;12.07;4.87;;;;;;;14.23;44.89;101367.12;5376602;32;37233;-73
2022/04/29 04:28:13;;;;;;;10.40;3.97;;;;;;;13.97;45.66;101360.16;5358031;32;44505;-73
2022/04/29 04:31:15;;;;;;;11.32;3.92;;;;;;;14.88;43.79;101366.31;5370490;32;34156;-75
2022/04/29 04:37:38;;;;;;;10.00;3.97;;;;;;;15.35;42.79;101376.66;5361367;32;45097;-73
2022/04/29 04:40:42;;;;;;;10.20;4.53;;;;;;;16.17;40.99;101377.41;5377286;32;35083;-74
2022/04/29 04:43:50;;;;;;;9.53;4.63;;;;;;;17.07;38.99;101364.25;5364253;32;34616;-74
2022/04/29 04:46:52;;;;;;;7.63;4.20;;;;;;;17.33;38.47;101379.69;5365425;32;33491;-74
2022/04/29 04:49:55;;;;;;;9.00;4.70;;;;;;;18.02;37.07;101380.53;5349268;32;34633;-73
2022/04/29 04:52:57;;;;;;;12.80;7.23;;;;;;;17.51;37.42;101377.84;5362358;32;34885;-74
2022/04/29 04:56:00;;;;;;;11.93;5.80;;;;;;;17.90;37.10;101386.50;5376790;32;34691;-75
2022/04/29 04:59:02;;;;;;;11.87;4.90;;;;;;;17.67;37.84;101387.72;5361009;32;34217;-74
2022/04/29 05:02:04;;;;;;;11.57;4.50;;;;;;;18.57;36.21;101382.78;5377308;32;34468;-74
2022/04/29 05:05:08;;;;;;;14.63;5.18;;;;;;;19.21;34.81;101382.59;5365803;32;44118;-73
2022/04/29 05:08:10;;;;;;;10.13;4.50;;;;;;;19.14;34.93;101383.06;5374004;32;35053;-73
2022/04/29 05:11:12;;;;;;;12.23;5.68;;;;;;;19.09;34.49;101372.66;5364944;32;34732;-74
2022/04/29 05:14:14;;;;;;;12.70;4.95;;;;;;;19.90;33.26;101381.12;5362260;32;34977;-74
2022/04/29 05:17:16;;;;;;;8.93;4.20;;;;;;;19.67;33.36;101381.66;5377508;32;34710;-74
2022/04/29 05:20:19;;;;;;;11.93;4.50;;;;;;;21.06;30.80;101375.41;5362656;32;35510;-74
2022/04/29 05:23:21;;;;;;;12.02;5.68;;;;;;;19.63;33.74;101388.12;5369601;32;35046;-74
2022/04/29 05:26:23;;;;;;;11.40;3.87;;;;;;;19.89;32.65;101391.84;5362523;32;33116;-74
2022/04/29 05:29:25;;;;;;;12.32;4.90;;;;;;;19.63;32.21;101380.13;5373885;32;34574;-66
2022/04/29 05:32:29;;;;;;;12.35;5.53;;;;;;;20.72;30.58;101374.09;5360067;32;35549;-71
2022/04/29 05:35:31;;;;;;;9.15;4.87;;;;;;;19.81;32.85;101389.66;5360849;32;34329;-75
2022/04/29 05:42:30;;;;;;;;;;;;;;;19.56;33.82;101390.28;5358585;32;34042;-67
2022/04/29 05:45:24;;;;;;;11.40;5.22;;;;;;;20.50;31.97;101388.00;5370088;32;34732;-84
2022/04/29 05:52:08;;;;;;;13.15;4.90;;;;;;;22.10;29.02;101374.41;5402758;27;20167;-76
2022/04/29 05:55:11;;;;;;;11.10;4.68;;;;;;;21.57;29.57;101376.31;5350320;32;45666;-78
2022/04/29 05:58:33;;;;;;;10.02;4.95;;;;;;;22.59;27.73;101376.16;5359927;32;36832;-72
2022/04/29 06:01:35;;;;;;;11.65;5.00;;;;;;;22.02;28.65;101386.56;5352215;32;35644;-92
2022/04/29 06:04:38;;;;;;;10.63;4.70;;;;;;;21.92;28.23;101390.91;5344981;32;35288;-80
2022/04/29 06:07:43;;;;;;;13.13;4.87;;;;;;;22.19;27.00;101390.78;5350500;32;44207;-84
2022/04/29 06:10:45;;;;;;;10.55;4.35;;;;;;;21.18;28.70;101406.63;5340814;32;34036;-71
2022/04/29 06:13:48;;;;;;;7.57;4.15;;;;;;;23.36;24.41;101403.44;5354956;32;33992;-75
2022/04/29 06:16:50;;;;;;;7.93;4.18;;;;;;;21.40;26.51;101400.72;5335479;32;34918;-81
2022/04/29 06:19:52;;;;;;;11.48;4.37;;;;;;;22.95;24.52;101393.19;5362821;32;34306;-78
2022/04/29 06:22:55;;;;;;;8.38;4.87;;;;;;;23.41;23.91;101389.69;5350315;32;33985;-73
2022/04/29 06:25:58;;;;;;;6.93;3.70;;;;;;;21.76;26.31;101401.81;5351643;32;35300;-71
2022/04/29 06:29:02;;;;;;;8.07;3.92;;;;;;;23.14;24.11;101390.00;5361030;32;34106;-72
2022/04/29 06:32:04;;;;;;;8.73;4.07;;;;;;;22.60;24.76;101398.47;5349261;32;34265;-71
2022/04/29 06:35:08;;;;;;;8.02;3.83;;;;;;;21.25;25.99;101402.59;5367941;32;36840;-70
2022/04/29 06:38:10;;;;;;;7.82;4.00;;;;;;;21.93;25.13;101405.97;5347721;32;43186;-69
2022/04/29 06:41:12;;;;;;;9.95;4.68;;;;;;;21.90;25.14;101404.38;5368873;32;34132;-69
2022/04/29 06:44:15;;;;;;;13.70;4.55;;;;;;;21.94;25.47;101411.22;5351970;32;34115;-71
2022/04/29 06:47:17;;;;;;;10.27;4.40;;;;;;;23.64;23.13;101399.53;5356734;32;34068;-71
2022/04/29 06:50:20;;;;;;;9.73;4.18;;;;;;;24.27;22.59;101399.91;5352080;32;33951;-76
2022/04/29 06:53:22;;;;;;;7.37;4.55;;;;;;;22.63;24.36;101403.59;5340556;32;34027;-70
2022/04/29 06:56:24;;;;;;;7.12;4.10;;;;;;;22.80;24.15;101405.91;5365108;32;35103;-74
2022/04/29 06:59:27;;;;;;;10.60;4.15;;;;;;;22.79;24.66;101389.91;5350896;32;35644;-70
2022/04/29 07:02:29;;;;;;;11.25;4.62;;;;;;;24.93;21.91;101389.16;5331680;32;33510;-73
2022/04/29 07:05:32;;;;;;;14.05;8.60;;;;;;;23.37;23.55;101393.56;5344174;32;34282;-90
2022/04/29 07:08:34;;;;;;;7.43;4.10;;;;;;;23.67;23.29;101393.91;5354181;32;35205;-68
2022/04/29 07:11:37;;;;;;;10.90;5.25;;;;;;;23.34;23.37;101399.19;5358866;32;34491;-77
2022/04/29 07:14:39;;;;;;;;;;;;;;;25.39;21.02;101387.00;5330065;32;35416;-76
2022/04/29 07:17:42;;;;;;;7.57;4.07;;;;;;;24.54;21.62;101388.78;5358593;32;44396;-77
2022/04/29 07:20:44;;;;;;;12.57;4.60;;;;;;;23.84;22.80;101397.97;5343555;32;33957;-69
2022/04/29 07:23:47;;;;;;;12.37;3.80;;;;;;;24.10;22.56;101403.97;5357770;32;33779;-67
2022/04/29 07:26:49;;;;;;;13.75;5.40;;;;;;;23.40;23.06;101401.41;5343641;32;185543;-72
2022/04/29 07:29:52;;;;;;;6.55;3.60;;;;;;;25.86;21.01;101387.41;5328676;32;35149;-71
2022/04/29 07:32:54;;;;;;;9.43;3.62;;;;;;;23.98;22.23;101395.03;5346758;32;34857;-76
2022/04/29 07:42:55;;;;;;;15.00;4.00;;;;;;;24.67;22.00;101383.25;5351035;32;36882;-69
2022/04/29 07:45:58;;;;;;;;;;;;;;;24.67;22.34;101384.12;5351864;32;34053;-69
2022/04/29 07:49:00;;;;;;;8.27;3.62;;;;;;;24.09;22.28;101388.81;5355132;32;34252;-70
2022/04/29 07:52:03;;;;;;;9.65;3.45;;;;;;;24.22;22.83;101381.50;5348724;32;34013;-80
2022/04/29 07:55:05;;;;;;;7.10;3.87;;;;;;;23.93;21.17;101391.00;5359457;32;34143;-73
2022/04/29 07:58:09;;;;;;;6.78;2.75;;;;;;;25.32;19.60;101380.44;5352769;32;34196;-75
2022/04/29 08:01:11;;;;;;;6.78;3.10;;;;;;;26.39;17.63;101367.44;5356779;32;46759;-74
2022/04/29 08:04:13;;;;;;;6.30;2.92;;;;;;;25.43;19.56;101378.63;5351243;32;32618;-75
2022/04/29 08:07:16;;;;;;;6.72;3.08;;;;;;;24.31;21.57;101383.41;5353984;32;33960;-74
2022/04/29 08:10:18;;;;;;;10.30;3.70;;;;;;;25.90;19.11;101371.84;5357940;32;34989;-70
2022/04/29 08:13:21;;;;;;;6.15;3.70;;;;;;;26.51;18.80;101376.31;5348731;32;35116;-73
2022/04/29 08:16:23;;;;;;;7.07;3.35;;;;;;;23.98;21.13;101384.31;5345328;32;35155;-74
2022/04/29 08:19:27;;;;;;;7.03;3.40;;;;;;;24.89;20.19;101369.72;5361301;32;33860;-75
2022/04/29 08:22:29;;;;;;;5.82;3.05;;;;;;;27.11;18.03;101371.66;5365912;32;33964;-74
2022/04/29 08:25:32;;;;;;;7.68;3.30;;;;;;;28.58;16.21;101361.91;5353259;32;34055;-75
2022/04/29 08:28:34;;;;;;;7.22;3.05;;;;;;;24.45;20.33;101370.72;5351663;32;34189;-74
2022/04/29 08:31:37;;;;;;;4.75;3.00;;;;;;;24.19;20.62;101373.66;5367208;32;36159;-81
2022/04/29 08:34:39;;;;;;;13.40;3.42;;;;;;;25.34;19.39;101359.63;5354388;32;34105;-80
2022/04/29 08:37:42;;;;;;;6.03;3.22;;;;;;;24.48;20.46;101365.13;5367306;32;44546;-78
2022/04/29 08:40:46;;;;;;;10.63;3.35;;;;;;;24.73;20.00;101358.53;5356413;32;33945;-89
2022/04/29 08:43:49;;;;;;;7.10;3.97;;;;;;;25.52;19.45;101359.00;5366906;32;36520;-74
2022/04/29 08:46:51;;;;;;;5.57;2.70;;;;;;;26.34;18.22;101349.03;5363013;32;34599;-74
2022/04/29 08:49:53;;;;;;;7.75;3.15;;;;;;;26.17;18.03;101355.06;5348551;32;35294;-79
2022/04/29 08:52:56;;;;;;;13.98;3.62;;;;;;;25.69;19.59;101358.38;5348796;32;35311;-73
2022/04/29 08:59:19;;;;;;;7.00;3.15;;;;;;;27.53;17.03;101345.19;5353844;32;36036;-76
2022/04/29 09:02:21;;;;;;;8.07;3.92;;;;;;;27.92;16.49;101345.06;5355953;32;34206;-77
2022/04/29 09:05:24;;;;;;;14.25;6.93;;;;;;;25.31;18.58;101338.37;5347614;32;34184;-81
2022/04/29 09:08:27;;;;;;;4.60;3.00;;;;;;;27.48;17.21;101331.25;5350168;32;36710;-74
2022/04/29 09:11:29;;;;;;;12.10;4.40;;;;;;;26.51;17.80;101325.94;5357692;32;34112;-75
2022/04/29 09:14:31;;;;;;;6.50;2.87;;;;;;;29.10;15.44;101329.56;5361789;32;34176;-74
2022/04/29 09:17:34;;;;;;;4.78;2.80;;;;;;;26.65;16.86;101325.50;5347485;32;35294;-72
2022/04/29 09:20:37;;;;;;;4.97;3.08;;;;;;;26.76;16.00;101332.63;5367762;32;35325;-69
2022/04/29 09:23:47;;;;;;;4.40;3.00;;;;;;;26.48;16.38;101320.00;5355273;32;44761;-71
2022/04/29 09:26:52;;;;;;;7.05;3.67;;;;;;;26.57;17.16;101319.13;5343290;32;34123;-71
2022/04/29 09:30:01;;;;;;;5.07;2.80;;;;;;;27.91;16.40;101309.09;5364391;32;34185;-77
2022/04/29 09:33:05;;;;;;;5.10;2.80;;;;;;;25.91;17.30;101320.53;5349841;32;32394;-80
2022/04/29 09:36:07;;;;;;;10.00;3.60;;;;;;;28.10;15.20;101305.44;5366745;32;36693;-83
2022/04/29 09:39:28;;;;;;;6.15;3.30;;;;;;;26.82;15.92;101309.62;5354293;32;35353;-72
2022/04/29 09:42:36;;;;;;;8.23;3.12;;;;;;;26.70;16.43;101309.78;5352616;32;35569;-76
2022/04/29 09:45:38;;;;;;;7.07;3.25;;;;;;;27.44;16.25;101314.53;5364826;32;34076;-74
2022/04/29 09:49:06;;;;;;;4.65;2.60;;;;;;;26.53;17.65;101310.47;5353355;32;44277;-88
2022/04/29 09:52:08;;;;;;;6.20;2.85;;;;;;;29.48;14.57;101292.25;5359871;32;34221;-74
2022/04/29 09:55:11;;;;;;;7.90;3.10;;;;;;;29.29;14.55;101293.34;5355028;32;44742;-75
2022/04/29 09:58:14;;;;;;;7.40;2.67;;;;;;;28.14;15.27;101298.69;5365950;32;34309;-71
2022/04/29 10:01:18;;;;;;;9.85;3.17;;;;;;;25.45;16.94;101309.41;5364653;32;34784;-70
2022/04/29 10:04:21;;;;;;;12.70;3.22;;;;;;;25.77;17.12;101295.84;5348863;32;34148;-71
2022/04/29 10:07:25;;;;;;;5.95;2.55;;;;;;;28.20;15.14;101295.38;5358582;32;34097;-75
2022/04/29 10:10:39;;;;;;;6.28;3.20;;;;;;;26.62;16.38;101298.00;5353335;32;35181;-74
2022/04/29 10:13:41;;;;;;;6.10;3.03;;;;;;;23.67;19.70;101299.13;5356663;32;44767;-73
2022/04/29 10:16:45;;;;;;;4.93;2.87;;;;;;;24.42;19.04;101298.44;5344364;32;36003;-72
2022/04/29 10:23:25;;;;;;;7.22;3.33;;;;;;;23.56;20.34;101297.25;5366458;32;34076;-70
2022/04/29 10:26:29;;;;;;;7.40;4.40;;;;;;;23.03;20.99;101294.28;5342361;32;34181;-73
2022/04/29 10:29:31;;;;;;;5.00;3.20;;;;;;;23.55;20.56;101290.19;5366859;32;35457;-69
2022/04/29 10:33:02;;;;;;;11.88;3.12;;;;;;;23.68;20.30;101279.38;5356172;32;34515;-70
2022/04/29 10:36:06;;;;;;;5.50;2.65;;;;;;;26.08;17.51;101269.69;5348099;32;35878;-71
2022/04/29 10:39:18;;;;;;;6.50;3.00;;;;;;;27.79;15.73;101267.91;5370549;32;35601;-72
2022/04/29 10:42:20;;;;;;;5.47;2.50;;;;;;;27.16;16.24;101272.25;5358495;32;34167;-75
2022/04/29 10:45:22;;;;;;;6.70;3.60;;;;;;;27.39;15.59;101270.91;5367402;32;34087;-77
2022/04/29 10:48:37;;;;;;;5.37;2.85;;;;;;;26.97;16.15;101265.88;5357621;32;35169;-76
2022/04/29 10:51:49;;;;;;;5.87;3.28;;;;;;;26.27;16.97;101260.78;5345408;32;35418;-76
2022/04/29 10:54:56;;;;;;;6.20;3.10;;;;;;;24.91;18.00;101270.94;5366709;32;33949;-80
2022/04/29 10:58:04;;;;;;;5.95;2.80;;;;;;;28.50;14.82;101250.94;5350168;32;36185;-85
2022/04/29 11:01:21;;;;;;;10.35;2.83;;;;;;;27.57;15.08;101256.66;5360669;32;34189;-82
2022/04/29 11:04:24;;;;;;;6.37;2.80;;;;;;;24.89;17.20;101259.47;5349373;32;34286;-74
2022/04/29 11:07:38;;;;;;;4.87;2.90;;;;;;;24.46;17.78;101254.19;5351810;32;34592;-73
2022/04/29 11:10:58;;;;;;;7.93;3.33;;;;;;;26.42;16.41;101245.94;5397836;27;44811;-94
2022/04/29 11:14:01;;;;;;;9.45;3.05;;;;;;;25.41;17.26;101238.84;5380593;32;34505;-95
2022/04/29 11:17:14;;;;;;;7.47;3.53;;;;;;;27.22;15.49;101236.59;5379392;32;44376;-95
2022/04/29 11:20:31;;;;;;;5.80;3.25;;;;;;;28.54;14.31;101208.25;5385530;32;33905;-96
2022/04/29 11:27:01;;;;;;;7.32;3.20;;;;;;;25.53;17.89;101236.91;5405966;32;34171;-96
2022/04/29 11:30:19;;;;;;;9.02;3.25;;;;;;;28.45;15.41;101230.78;5456566;27;35343;-71
2022/04/29 11:33:23;;;;;;;4.45;2.70;;;;;;;25.45;17.92;101220.59;5327889;32;33833;-73
2022/04/29 11:36:25;;;;;;;7.62;4.47;;;;;;;23.96;19.03;101235.06;5314395;32;34049;-73
2022/04/29 11:39:27;;;;;;;;;;;;;;;28.18;14.88;101221.72;5298878;32;34441;-71
2022/04/29 11:42:29;;;;;;;5.47;2.90;;;;;;;28.00;14.47;101210.06;5331635;32;35970;-71
2022/04/29 11:46:09;;;;;;;5.32;2.90;;;;;;;26.96;15.37;101215.63;5430649;27;34161;-96
2022/04/29 11:49:32;;;;;;;7.20;3.15;;;;;;;27.42;15.55;101211.22;5407494;32;34365;-95
2022/04/29 11:52:56;;;;;;;5.75;2.97;;;;;;;28.40;14.90;101195.25;5388913;32;35435;-96
2022/04/29 11:56:09;;;;;;;4.25;2.60;;;;;;;30.13;13.33;101194.16;5360457;27;35867;-79
2022/04/29 12:03:04;;;;;;;6.25;2.95;;;;;;;27.32;15.20;101185.28;5362188;32;33639;-96
2022/04/29 12:06:16;;;;;;;5.62;2.90;;;;;;;26.96;15.16;101188.66;5337027;32;36006;-93
2022/04/29 12:09:34;;;;;;;5.20;2.80;;;;;;;28.07;13.79;101168.75;5369515;32;33070;-93
2022/04/29 12:12:47;;;;;;;5.70;2.90;;;;;;;28.13;14.37;101171.84;5377600;32;35609;-94
2022/04/29 12:15:57;;;;;;;6.03;2.65;;;;;;;27.81;14.39;101167.81;5337178;32;34055;-92
2022/04/29 12:19:18;;;;;;;5.57;2.90;;;;;;;29.05;13.66;101166.84;5342223;32;34158;-90
2022/04/29 12:22:29;;;;;;;5.43;2.50;;;;;;;28.35;14.28;101155.19;5355853;32;33007;-91
2022/04/29 12:25:42;;;;;;;8.85;2.97;;;;;;;30.35;12.63;101157.41;5363832;32;33841;-91
2022/04/29 12:28:58;;;;;;;6.97;3.42;;;;;;;31.79;11.69;101158.19;5347149;32;44985;-94
2022/04/29 12:35:39;;;;;;;9.70;3.33;;;;;;;27.08;14.84;101164.22;5384398;32;34660;-93
2022/04/29 12:38:51;;;;;;;5.22;2.97;;;;;;;29.39;13.40;101156.00;5377430;32;43169;-92
2022/04/29 12:41:58;;;;;;;5.87;2.40;;;;;;;26.34;15.50;101159.50;5387041;32;33808;-92
2022/04/29 12:45:14;;;;;;;5.55;2.58;;;;;;;29.60;12.45;101136.62;5374882;32;36190;-92
2022/04/29 12:48:28;;;;;;;4.62;2.62;;;;;;;26.68;15.31;101146.44;5369042;32;35573;-92
2022/04/29 12:51:41;;;;;;;5.70;2.70;;;;;;;25.22;17.04;101142.75;5394073;32;36357;-95
2022/04/29 12:54:51;;;;;;;6.35;3.10;;;;;;;25.52;16.93;101136.47;5365042;32;44422;-93
2022/04/29 12:58:04;;;;;;;5.97;3.00;;;;;;;25.30;17.24;101142.06;5379146;32;33248;-92
2022/04/29 13:01:12;;;;;;;6.10;3.00;;;;;;;24.47;17.68;101137.66;5343156;32;34095;-90
2022/04/29 13:04:15;;;;;;;3.95;2.45;;;;;;;24.34;17.65;101132.50;5367123;32;33002;-91
2022/04/29 13:07:26;;;;;;;5.37;2.58;;;;;;;25.69;16.21;101124.16;5365385;32;35529;-91
2022/04/29 13:10:51;;;;;;;5.50;2.60;;;;;;;24.96;16.48;101122.66;5370398;32;35052;-93
2022/04/29 13:13:57;;;;;;;4.97;2.60;;;;;;;24.49;17.40;101114.22;5357758;32;34678;-91
2022/04/29 13:17:01;;;;;;;5.93;2.83;;;;;;;24.13;17.72;101127.09;5363226;32;34632;-91
2022/04/29 13:20:08;;;;;;;5.07;2.83;;;;;;;23.80;18.29;101116.50;5368210;32;34190;-90
2022/04/29 13:23:13;;;;;;;7.18;3.28;;;;;;;22.74;19.32;101119.62;5357823;32;44284;-90
2022/04/29 13:26:17;;;;;;;3.33;2.20;;;;;;;23.68;18.97;101116.53;5390398;32;33047;-90
2022/04/29 13:29:23;;;;;;;6.22;2.80;;;;;;;23.53;17.72;101115.09;5356062;32;33143;-89
2022/04/29 13:32:31;;;;;;;5.43;2.55;;;;;;;23.17;18.51;101108.19;5376578;32;35667;-91
2022/04/29 13:35:36;;;;;;;9.60;3.25;;;;;;;23.43;17.97;101082.78;5342517;32;34868;-89
2022/04/29 13:38:43;;;;;;;8.02;2.95;;;;;;;23.17;18.75;101092.94;5376567;32;34238;-92
2022/04/29 13:41:47;;;;;;;4.85;3.12;;;;;;;24.57;17.32;101084.84;5364884;32;44076;-92
2022/04/29 13:44:55;;;;;;;4.15;2.62;;;;;;;25.03;16.86;101095.09;5402285;32;34046;-90
2022/04/29 13:48:00;;;;;;;6.43;2.83;;;;;;;23.28;18.84;101089.41;5344306;32;33105;-93
2022/04/29 13:51:08;;;;;;;7.15;3.03;;;;;;;22.80;18.95;101078.06;5361568;32;33350;-90
2022/04/29 13:54:17;;;;;;;9.15;3.58;;;;;;;22.68;19.61;101070.06;5374231;32;43298;-93
2022/04/29 13:57:24;;;;;;;7.37;2.60;;;;;;;23.97;18.33;101078.34;5375275;32;36199;-90
2022/04/29 14:00:42;;;;;;;7.43;3.10;;;;;;;23.09;18.78;101083.81;5374269;32;33857;-94
2022/04/29 14:03:49;;;;;;;8.73;4.70;;;;;;;23.05;19.12;101080.53;5383552;32;45007;-93
2022/04/29 14:07:04;;;;;;;7.30;3.40;;;;;;;23.41;18.71;101079.38;5391925;32;33569;-91
2022/04/29 14:10:15;;;;;;;4.87;2.87;;;;;;;23.25;18.84;101073.56;5372766;32;44096;-94
2022/04/29 14:13:20;;;;;;;6.25;2.67;;;;;;;22.61;19.63;101078.69;5366674;32;33797;-94
2022/04/29 14:16:28;;;;;;;6.00;2.75;;;;;;;24.11;17.96;101071.81;5359442;32;34472;-94
2022/04/29 14:19:35;;;;;;;6.25;3.22;;;;;;;22.95;19.24;101072.38;5379548;32;36591;-92
2022/04/29 14:22:41;;;;;;;6.35;2.83;;;;;;;24.01;17.88;101069.03;5381882;32;32665;-92
2022/04/29 14:25:50;;;;;;;6.60;2.85;;;;;;;22.75;19.35;101065.06;5346519;32;44438;-90
2022/04/29 14:28:56;;;;;;;6.50;2.90;;;;;;;24.00;17.92;101059.28;5350656;32;34395;-91
2022/04/29 14:32:01;;;;;;;7.03;2.92;;;;;;;24.08;17.48;101055.94;5382470;32;34529;-92
2022/04/29 14:35:07;;;;;;;4.90;2.60;;;;;;;22.59;19.19;101054.69;5369804;32;33616;-94
2022/04/29 14:38:11;;;;;;;6.62;2.85;;;;;;;22.27;19.38;101056.34;5374212;32;35285;-93
2022/04/29 14:41:16;;;;;;;6.35;2.45;;;;;;;23.12;19.02;101032.63;5354590;32;33447;-95
2022/04/29 14:44:19;;;;;;;7.05;3.50;;;;;;;22.09;19.74;101056.81;5374421;32;34035;-90
2022/04/29 14:47:27;;;;;;;6.97;3.53;;;;;;;22.77;19.40;101055.06;5393604;32;35454;-95
2022/04/29 14:50:31;;;;;;;6.70;3.00;;;;;;;22.56;19.42;101049.59;5402132;32;32749;-87
2022/04/29 14:53:37;;;;;;;6.03;2.90;;;;;;;22.48;19.67;101032.38;5373285;32;33948;-94
2022/04/29 14:56:43;;;;;;;6.53;2.83;;;;;;;22.72;19.28;101046.53;5381660;32;45584;-93
2022/04/29 14:59:47;;;;;;;7.35;3.08;;;;;;;22.13;20.08;101054.75;5388265;32;34194;-89